sensor_id;sensor_type;location;lat;lon;timestamp;P1;durP1;ratioP1;P2;durP2;ratioP2
9254;SDS011;4663;49.120;9.730;2023-03-14T00:00:03;22.03;;;21.03;;
9254;SDS011;4663;49.120;9.730;2023-03-14T00:02:36;22.90;;;21.90;;
9254;SDS011;4663;49.120;9.730;2023-03-14T00:05:02;24.23;;;23.13;;
9254;SDS011;4663;49.120;9.730;2023-03-14T00:07:32;23.73;;;22.67;;
9254;SDS011;4663;49.120;9.730;2023-03-14T00:10:00;22.87;;;21.67;;
9254;SDS011;4663;49.120;9.730;2023-03-14T00:12:27;25.73;;;24.43;;
9254;SDS011;4663;49.120;9.730;2023-03-14T00:14:52;24.90;;;23.80;;
9254;SDS011;4663;49.120;9.730;2023-03-14T00:17:17;22.63;;;21.63;;
9254;SDS011;4663;49.120;9.730;2023-03-14T00:19:43;26.27;;;25.07;;
9254;SDS011;4663;49.120;9.730;2023-03-14T00:22:08;24.20;;;23.07;;
9254;SDS011;4663;49.120;9.730;2023-03-14T00:24:33;24.93;;;23.73;;
9254;SDS011;4663;49.120;9.730;2023-03-14T00:26:59;23.83;;;22.73;;
9254;SDS011;4663;49.120;9.730;2023-03-14T00:29:24;23.27;;;22.20;;
9254;SDS011;4663;49.120;9.730;2023-03-14T00:31:49;21.70;;;20.60;;
9254;SDS011;4663;49.120;9.730;2023-03-14T00:34:15;22.10;;;21.00;;
9254;SDS011;4663;49.120;9.730;2023-03-14T00:36:40;20.47;;;19.57;;
9254;SDS011;4663;49.120;9.730;2023-03-14T00:39:05;20.13;;;19.23;;
9254;SDS011;4663;49.120;9.730;2023-03-14T00:41:31;20.03;;;19.13;;
9254;SDS011;4663;49.120;9.730;2023-03-14T00:43:56;20.70;;;19.70;;
9254;SDS011;4663;49.120;9.730;2023-03-14T00:46:21;21.13;;;20.07;;
9254;SDS011;4663;49.120;9.730;2023-03-14T00:48:47;19.97;;;18.97;;
9254;SDS011;4663;49.120;9.730;2023-03-14T00:51:13;20.37;;;19.37;;
9254;SDS011;4663;49.120;9.730;2023-03-14T00:53:40;23.13;;;22.07;;
9254;SDS011;4663;49.120;9.730;2023-03-14T00:56:07;20.83;;;19.73;;
9254;SDS011;4663;49.120;9.730;2023-03-14T00:58:34;23.37;;;22.30;;
9254;SDS011;4663;49.120;9.730;2023-03-14T01:01:04;23.07;;;22.07;;
9254;SDS011;4663;49.120;9.730;2023-03-14T01:03:31;21.83;;;20.83;;
9254;SDS011;4663;49.120;9.730;2023-03-14T01:06:06;20.40;;;19.50;;
9254;SDS011;4663;49.120;9.730;2023-03-14T01:08:32;19.93;;;19.00;;
9254;SDS011;4663;49.120;9.730;2023-03-14T01:10:58;21.63;;;20.63;;
9254;SDS011;4663;49.120;9.730;2023-03-14T01:13:23;23.37;;;22.27;;
9254;SDS011;4663;49.120;9.730;2023-03-14T01:15:48;23.00;;;21.90;;
9254;SDS011;4663;49.120;9.730;2023-03-14T01:18:13;24.23;;;23.03;;
9254;SDS011;4663;49.120;9.730;2023-03-14T01:20:39;23.50;;;22.30;;
9254;SDS011;4663;49.120;9.730;2023-03-14T01:23:04;22.63;;;21.37;;
9254;SDS011;4663;49.120;9.730;2023-03-14T01:25:29;22.83;;;21.77;;
9254;SDS011;4663;49.120;9.730;2023-03-14T01:27:55;23.90;;;22.80;;
9254;SDS011;4663;49.120;9.730;2023-03-14T01:30:20;25.50;;;24.33;;
9254;SDS011;4663;49.120;9.730;2023-03-14T01:32:46;27.33;;;26.03;;
9254;SDS011;4663;49.120;9.730;2023-03-14T01:35:11;31.07;;;29.67;;
9254;SDS011;4663;49.120;9.730;2023-03-14T01:37:36;30.93;;;29.43;;
9254;SDS011;4663;49.120;9.730;2023-03-14T01:40:02;36.10;;;34.40;;
9254;SDS011;4663;49.120;9.730;2023-03-14T01:42:30;35.33;;;33.73;;
9254;SDS011;4663;49.120;9.730;2023-03-14T01:44:56;37.47;;;35.63;;
9254;SDS011;4663;49.120;9.730;2023-03-14T01:47:23;42.20;;;40.30;;
9254;SDS011;4663;49.120;9.730;2023-03-14T01:55:02;44.30;;;42.33;;
9254;SDS011;4663;49.120;9.730;2023-03-14T01:57:35;47.33;;;45.20;;
9254;SDS011;4663;49.120;9.730;2023-03-14T02:00:09;50.60;;;48.33;;
9254;SDS011;4663;49.120;9.730;2023-03-14T02:02:40;47.40;;;45.17;;
9254;SDS011;4663;49.120;9.730;2023-03-14T02:05:09;47.43;;;45.30;;
9254;SDS011;4663;49.120;9.730;2023-03-14T02:07:46;47.80;;;45.30;;
9254;SDS011;4663;49.120;9.730;2023-03-14T02:10:15;45.03;;;43.00;;
9254;SDS011;4663;49.120;9.730;2023-03-14T02:12:43;46.20;;;44.13;;
9254;SDS011;4663;49.120;9.730;2023-03-14T02:15:10;49.40;;;47.20;;
9254;SDS011;4663;49.120;9.730;2023-03-14T02:17:35;51.83;;;49.43;;
9254;SDS011;4663;49.120;9.730;2023-03-14T02:20:35;52.50;;;50.07;;
9254;SDS011;4663;49.120;9.730;2023-03-14T02:22:52;55.13;;;52.63;;
9254;SDS011;4663;49.120;9.730;2023-03-14T02:27:47;58.57;;;55.93;;
9254;SDS011;4663;49.120;9.730;2023-03-14T02:30:14;59.77;;;56.97;;
9254;SDS011;4663;49.120;9.730;2023-03-14T02:32:49;62.40;;;59.60;;
9254;SDS011;4663;49.120;9.730;2023-03-14T02:35:20;63.47;;;60.57;;
9254;SDS011;4663;49.120;9.730;2023-03-14T02:37:49;66.67;;;63.63;;
9254;SDS011;4663;49.120;9.730;2023-03-14T02:40:18;65.00;;;61.97;;
9254;SDS011;4663;49.120;9.730;2023-03-14T02:42:44;63.07;;;59.93;;
9254;SDS011;4663;49.120;9.730;2023-03-14T02:47:36;71.50;;;68.27;;
9254;SDS011;4663;49.120;9.730;2023-03-14T02:50:08;76.07;;;72.63;;
9254;SDS011;4663;49.120;9.730;2023-03-14T02:52:37;79.07;;;75.47;;
9254;SDS011;4663;49.120;9.730;2023-03-14T02:55:02;73.37;;;70.07;;
9254;SDS011;4663;49.120;9.730;2023-03-14T02:57:28;76.90;;;73.17;;
9254;SDS011;4663;49.120;9.730;2023-03-14T02:59:54;72.07;;;68.70;;
9254;SDS011;4663;49.120;9.730;2023-03-14T03:02:24;73.53;;;70.23;;
9254;SDS011;4663;49.120;9.730;2023-03-14T03:04:50;69.80;;;66.60;;
9254;SDS011;4663;49.120;9.730;2023-03-14T03:07:15;71.93;;;68.63;;
9254;SDS011;4663;49.120;9.730;2023-03-14T03:09:40;73.43;;;70.03;;
9254;SDS011;4663;49.120;9.730;2023-03-14T03:12:06;73.50;;;70.10;;
9254;SDS011;4663;49.120;9.730;2023-03-14T03:14:31;68.00;;;64.83;;
9254;SDS011;4663;49.120;9.730;2023-03-14T03:16:57;66.60;;;63.53;;
9254;SDS011;4663;49.120;9.730;2023-03-14T03:19:22;65.70;;;62.70;;
9254;SDS011;4663;49.120;9.730;2023-03-14T03:21:47;66.10;;;63.10;;
9254;SDS011;4663;49.120;9.730;2023-03-14T03:24:13;65.73;;;62.73;;
9254;SDS011;4663;49.120;9.730;2023-03-14T03:26:38;66.73;;;63.60;;
9254;SDS011;4663;49.120;9.730;2023-03-14T03:29:04;63.97;;;61.07;;
9254;SDS011;4663;49.120;9.730;2023-03-14T03:31:29;62.13;;;59.00;;
9254;SDS011;4663;49.120;9.730;2023-03-14T03:33:55;66.73;;;63.67;;
9254;SDS011;4663;49.120;9.730;2023-03-14T03:36:22;64.47;;;61.53;;
9254;SDS011;4663;49.120;9.730;2023-03-14T03:38:50;66.23;;;63.13;;
9254;SDS011;4663;49.120;9.730;2023-03-14T03:41:15;63.63;;;60.73;;
9254;SDS011;4663;49.120;9.730;2023-03-14T03:43:41;62.23;;;59.33;;
9254;SDS011;4663;49.120;9.730;2023-03-14T03:46:06;61.47;;;58.67;;
9254;SDS011;4663;49.120;9.730;2023-03-14T03:48:32;67.37;;;64.17;;
9254;SDS011;4663;49.120;9.730;2023-03-14T03:50:58;61.53;;;58.70;;
9254;SDS011;4663;49.120;9.730;2023-03-14T03:53:24;64.43;;;61.50;;
9254;SDS011;4663;49.120;9.730;2023-03-14T03:55:49;62.43;;;59.53;;
9254;SDS011;4663;49.120;9.730;2023-03-14T03:58:15;62.43;;;59.53;;
9254;SDS011;4663;49.120;9.730;2023-03-14T04:00:40;61.37;;;58.53;;
9254;SDS011;4663;49.120;9.730;2023-03-14T04:03:06;59.60;;;56.73;;
9254;SDS011;4663;49.120;9.730;2023-03-14T04:05:31;60.07;;;57.27;;
9254;SDS011;4663;49.120;9.730;2023-03-14T04:07:57;60.73;;;57.80;;
9254;SDS011;4663;49.120;9.730;2023-03-14T04:10:22;57.07;;;54.47;;
9254;SDS011;4663;49.120;9.730;2023-03-14T04:12:47;58.73;;;55.97;;
9254;SDS011;4663;49.120;9.730;2023-03-14T04:15:13;61.27;;;58.47;;
9254;SDS011;4663;49.120;9.730;2023-03-14T04:17:38;57.93;;;55.27;;
9254;SDS011;4663;49.120;9.730;2023-03-14T04:20:04;57.27;;;54.63;;
9254;SDS011;4663;49.120;9.730;2023-03-14T04:22:30;56.30;;;53.73;;
9254;SDS011;4663;49.120;9.730;2023-03-14T04:24:55;55.90;;;53.03;;
9254;SDS011;4663;49.120;9.730;2023-03-14T04:27:20;57.00;;;54.37;;
9254;SDS011;4663;49.120;9.730;2023-03-14T04:29:46;53.73;;;51.13;;
9254;SDS011;4663;49.120;9.730;2023-03-14T04:32:11;52.63;;;50.17;;
9254;SDS011;4663;49.120;9.730;2023-03-14T04:34:37;52.00;;;49.53;;
9254;SDS011;4663;49.120;9.730;2023-03-14T04:37:02;52.40;;;49.93;;
9254;SDS011;4663;49.120;9.730;2023-03-14T04:39:28;49.13;;;46.73;;
9254;SDS011;4663;49.120;9.730;2023-03-14T04:41:53;53.80;;;51.27;;
9254;SDS011;4663;49.120;9.730;2023-03-14T04:44:19;48.87;;;46.57;;
9254;SDS011;4663;49.120;9.730;2023-03-14T04:46:44;49.10;;;46.80;;
9254;SDS011;4663;49.120;9.730;2023-03-14T04:49:09;54.13;;;51.57;;
9254;SDS011;4663;49.120;9.730;2023-03-14T04:51:35;45.47;;;43.27;;
9254;SDS011;4663;49.120;9.730;2023-03-14T04:54:00;45.97;;;43.80;;
9254;SDS011;4663;49.120;9.730;2023-03-14T04:56:26;47.07;;;44.77;;
9254;SDS011;4663;49.120;9.730;2023-03-14T04:58:52;40.37;;;38.40;;
9254;SDS011;4663;49.120;9.730;2023-03-14T05:01:18;44.83;;;42.53;;
9254;SDS011;4663;49.120;9.730;2023-03-14T05:03:43;44.30;;;42.23;;
9254;SDS011;4663;49.120;9.730;2023-03-14T05:06:08;48.23;;;45.87;;
9254;SDS011;4663;49.120;9.730;2023-03-14T05:08:34;43.27;;;40.77;;
9254;SDS011;4663;49.120;9.730;2023-03-14T05:10:59;43.40;;;41.30;;
9254;SDS011;4663;49.120;9.730;2023-03-14T05:13:25;46.07;;;43.83;;
9254;SDS011;4663;49.120;9.730;2023-03-14T05:15:50;45.57;;;43.33;;
9254;SDS011;4663;49.120;9.730;2023-03-14T05:18:16;40.80;;;38.80;;
9254;SDS011;4663;49.120;9.730;2023-03-14T05:20:42;38.93;;;36.97;;
9254;SDS011;4663;49.120;9.730;2023-03-14T05:23:10;36.10;;;34.43;;
9254;SDS011;4663;49.120;9.730;2023-03-14T05:25:35;36.67;;;34.73;;
9254;SDS011;4663;49.120;9.730;2023-03-14T05:28:00;34.67;;;32.77;;
9254;SDS011;4663;49.120;9.730;2023-03-14T05:30:26;37.30;;;35.43;;
9254;SDS011;4663;49.120;9.730;2023-03-14T05:32:53;32.97;;;31.37;;
9254;SDS011;4663;49.120;9.730;2023-03-14T05:35:19;32.53;;;30.90;;
9254;SDS011;4663;49.120;9.730;2023-03-14T05:37:44;31.83;;;30.33;;
9254;SDS011;4663;49.120;9.730;2023-03-14T05:40:10;28.43;;;27.03;;
9254;SDS011;4663;49.120;9.730;2023-03-14T05:42:36;29.23;;;27.67;;
9254;SDS011;4663;49.120;9.730;2023-03-14T05:45:01;28.27;;;26.97;;
9254;SDS011;4663;49.120;9.730;2023-03-14T05:47:27;29.03;;;27.63;;
9254;SDS011;4663;49.120;9.730;2023-03-14T05:49:52;26.43;;;25.07;;
9254;SDS011;4663;49.120;9.730;2023-03-14T05:52:18;25.67;;;24.40;;
9254;SDS011;4663;49.120;9.730;2023-03-14T05:54:43;24.27;;;23.10;;
9254;SDS011;4663;49.120;9.730;2023-03-14T05:57:09;22.70;;;21.63;;
9254;SDS011;4663;49.120;9.730;2023-03-14T05:59:34;25.23;;;23.97;;
9254;SDS011;4663;49.120;9.730;2023-03-14T06:01:59;25.47;;;24.20;;
9254;SDS011;4663;49.120;9.730;2023-03-14T06:04:25;23.57;;;22.40;;
9254;SDS011;4663;49.120;9.730;2023-03-14T06:06:50;23.10;;;21.97;;
9254;SDS011;4663;49.120;9.730;2023-03-14T06:09:16;23.23;;;22.00;;
9254;SDS011;4663;49.120;9.730;2023-03-14T06:11:41;24.53;;;23.03;;
9254;SDS011;4663;49.120;9.730;2023-03-14T06:14:06;25.40;;;24.00;;
9254;SDS011;4663;49.120;9.730;2023-03-14T06:16:32;27.57;;;26.03;;
9254;SDS011;4663;49.120;9.730;2023-03-14T06:18:58;30.33;;;28.63;;
9254;SDS011;4663;49.120;9.730;2023-03-14T06:21:23;32.17;;;30.23;;
9254;SDS011;4663;49.120;9.730;2023-03-14T06:23:48;32.93;;;31.27;;
9254;SDS011;4663;49.120;9.730;2023-03-14T06:26:14;45.87;;;43.50;;
9254;SDS011;4663;49.120;9.730;2023-03-14T06:28:39;41.33;;;38.83;;
9254;SDS011;4663;49.120;9.730;2023-03-14T06:31:05;41.90;;;39.73;;
9254;SDS011;4663;49.120;9.730;2023-03-14T06:33:30;44.87;;;42.67;;
9254;SDS011;4663;49.120;9.730;2023-03-14T06:35:56;46.00;;;43.80;;
9254;SDS011;4663;49.120;9.730;2023-03-14T06:38:21;46.33;;;44.00;;
9254;SDS011;4663;49.120;9.730;2023-03-14T06:40:47;43.70;;;41.60;;
9254;SDS011;4663;49.120;9.730;2023-03-14T06:43:12;44.73;;;42.63;;
9254;SDS011;4663;49.120;9.730;2023-03-14T06:45:37;46.47;;;44.03;;
9254;SDS011;4663;49.120;9.730;2023-03-14T06:48:03;47.53;;;45.10;;
9254;SDS011;4663;49.120;9.730;2023-03-14T06:50:29;44.93;;;42.77;;
9254;SDS011;4663;49.120;9.730;2023-03-14T06:52:54;43.00;;;40.73;;
9254;SDS011;4663;49.120;9.730;2023-03-14T06:55:19;42.77;;;40.63;;
9254;SDS011;4663;49.120;9.730;2023-03-14T06:57:45;35.47;;;33.63;;
9254;SDS011;4663;49.120;9.730;2023-03-14T07:00:12;34.73;;;32.93;;
9254;SDS011;4663;49.120;9.730;2023-03-14T07:02:38;31.27;;;29.53;;
9254;SDS011;4663;49.120;9.730;2023-03-14T07:05:04;29.77;;;28.23;;
9254;SDS011;4663;49.120;9.730;2023-03-14T07:07:30;30.80;;;29.13;;
9254;SDS011;4663;49.120;9.730;2023-03-14T07:09:56;24.93;;;23.57;;
9254;SDS011;4663;49.120;9.730;2023-03-14T07:12:21;22.10;;;20.80;;
9254;SDS011;4663;49.120;9.730;2023-03-14T07:14:46;18.37;;;17.17;;
9254;SDS011;4663;49.120;9.730;2023-03-14T07:17:12;16.13;;;15.13;;
9254;SDS011;4663;49.120;9.730;2023-03-14T07:19:37;16.70;;;15.87;;
9254;SDS011;4663;49.120;9.730;2023-03-14T07:22:04;29.13;;;27.17;;
9254;SDS011;4663;49.120;9.730;2023-03-14T07:24:30;36.40;;;34.27;;
9254;SDS011;4663;49.120;9.730;2023-03-14T07:26:55;30.97;;;29.20;;
9254;SDS011;4663;49.120;9.730;2023-03-14T07:29:20;20.95;;;19.90;;
9254;SDS011;4663;49.120;9.730;2023-03-14T07:31:46;16.58;;;15.68;;
9254;SDS011;4663;49.120;9.730;2023-03-14T07:34:12;12.73;;;11.93;;
9254;SDS011;4663;49.120;9.730;2023-03-14T07:36:38;13.20;;;12.25;;
9254;SDS011;4663;49.120;9.730;2023-03-14T07:39:03;13.15;;;12.35;;
9254;SDS011;4663;49.120;9.730;2023-03-14T07:41:29;12.77;;;12.15;;
9254;SDS011;4663;49.120;9.730;2023-03-14T07:43:55;14.68;;;13.60;;
9254;SDS011;4663;49.120;9.730;2023-03-14T07:46:21;12.93;;;12.02;;
9254;SDS011;4663;49.120;9.730;2023-03-14T07:48:46;13.23;;;12.52;;
9254;SDS011;4663;49.120;9.730;2023-03-14T07:51:11;15.43;;;14.40;;
9254;SDS011;4663;49.120;9.730;2023-03-14T07:53:37;14.73;;;14.02;;
9254;SDS011;4663;49.120;9.730;2023-03-14T07:56:03;17.30;;;16.20;;
9254;SDS011;4663;49.120;9.730;2023-03-14T07:58:28;16.20;;;15.38;;
9254;SDS011;4663;49.120;9.730;2023-03-14T08:00:58;15.98;;;15.18;;
9254;SDS011;4663;49.120;9.730;2023-03-14T08:03:24;18.10;;;17.02;;
9254;SDS011;4663;49.120;9.730;2023-03-14T08:05:49;18.77;;;17.52;;
9254;SDS011;4663;49.120;9.730;2023-03-14T08:08:15;20.65;;;19.48;;
9254;SDS011;4663;49.120;9.730;2023-03-14T08:10:41;19.33;;;18.40;;
9254;SDS011;4663;49.120;9.730;2023-03-14T08:13:07;18.55;;;17.63;;
9254;SDS011;4663;49.120;9.730;2023-03-14T08:15:32;16.90;;;16.10;;
9254;SDS011;4663;49.120;9.730;2023-03-14T08:17:57;16.60;;;15.70;;
9254;SDS011;4663;49.120;9.730;2023-03-14T08:20:27;14.57;;;13.75;;
9254;SDS011;4663;49.120;9.730;2023-03-14T08:22:57;13.60;;;12.90;;
9254;SDS011;4663;49.120;9.730;2023-03-14T08:25:23;12.15;;;11.57;;
9254;SDS011;4663;49.120;9.730;2023-03-14T08:27:49;12.65;;;11.95;;
9254;SDS011;4663;49.120;9.730;2023-03-14T08:30:15;12.90;;;12.27;;
9254;SDS011;4663;49.120;9.730;2023-03-14T08:32:42;13.60;;;12.70;;
9254;SDS011;4663;49.120;9.730;2023-03-14T08:35:08;12.93;;;12.27;;
9254;SDS011;4663;49.120;9.730;2023-03-14T08:37:34;12.57;;;11.80;;
9254;SDS011;4663;49.120;9.730;2023-03-14T08:40:01;12.48;;;11.77;;
9254;SDS011;4663;49.120;9.730;2023-03-14T08:42:31;13.95;;;13.25;;
9254;SDS011;4663;49.120;9.730;2023-03-14T08:44:57;14.10;;;13.35;;
9254;SDS011;4663;49.120;9.730;2023-03-14T08:47:23;13.90;;;13.25;;
9254;SDS011;4663;49.120;9.730;2023-03-14T08:49:48;13.95;;;13.25;;
9254;SDS011;4663;49.120;9.730;2023-03-14T08:52:13;14.48;;;13.80;;
9254;SDS011;4663;49.120;9.730;2023-03-14T08:54:41;13.57;;;12.98;;
9254;SDS011;4663;49.120;9.730;2023-03-14T08:57:08;13.00;;;12.40;;
9254;SDS011;4663;49.120;9.730;2023-03-14T08:59:33;13.57;;;12.98;;
9254;SDS011;4663;49.120;9.730;2023-03-14T09:01:58;13.27;;;12.57;;
9254;SDS011;4663;49.120;9.730;2023-03-14T09:04:24;13.15;;;12.52;;
9254;SDS011;4663;49.120;9.730;2023-03-14T09:06:49;12.27;;;11.70;;
9254;SDS011;4663;49.120;9.730;2023-03-14T09:09:15;13.77;;;13.15;;
9254;SDS011;4663;49.120;9.730;2023-03-14T09:11:40;12.93;;;12.32;;
9254;SDS011;4663;49.120;9.730;2023-03-14T09:14:05;13.65;;;12.85;;
9254;SDS011;4663;49.120;9.730;2023-03-14T09:16:31;13.07;;;12.38;;
9254;SDS011;4663;49.120;9.730;2023-03-14T09:18:58;14.20;;;13.45;;
9254;SDS011;4663;49.120;9.730;2023-03-14T09:21:25;11.52;;;10.98;;
9254;SDS011;4663;49.120;9.730;2023-03-14T09:23:51;12.60;;;11.90;;
9254;SDS011;4663;49.120;9.730;2023-03-14T09:26:16;12.80;;;12.20;;
9254;SDS011;4663;49.120;9.730;2023-03-14T09:28:41;13.32;;;12.73;;
9254;SDS011;4663;49.120;9.730;2023-03-14T09:31:07;12.57;;;11.88;;
9254;SDS011;4663;49.120;9.730;2023-03-14T09:33:34;13.98;;;13.15;;
9254;SDS011;4663;49.120;9.730;2023-03-14T09:36:00;12.85;;;12.25;;
9254;SDS011;4663;49.120;9.730;2023-03-14T09:38:26;13.82;;;13.13;;
9254;SDS011;4663;49.120;9.730;2023-03-14T09:40:52;15.23;;;14.48;;
9254;SDS011;4663;49.120;9.730;2023-03-14T09:43:18;13.85;;;13.23;;
9254;SDS011;4663;49.120;9.730;2023-03-14T09:45:46;13.13;;;12.52;;
9254;SDS011;4663;49.120;9.730;2023-03-14T09:48:19;13.45;;;12.85;;
9254;SDS011;4663;49.120;9.730;2023-03-14T09:50:48;13.95;;;13.35;;
9254;SDS011;4663;49.120;9.730;2023-03-14T09:53:18;13.20;;;12.60;;
9254;SDS011;4663;49.120;9.730;2023-03-14T09:55:47;12.90;;;12.20;;
9254;SDS011;4663;49.120;9.730;2023-03-14T09:58:21;11.82;;;11.32;;
9254;SDS011;4663;49.120;9.730;2023-03-14T10:00:52;12.70;;;11.85;;
9254;SDS011;4663;49.120;9.730;2023-03-14T10:05:48;13.77;;;12.75;;
9254;SDS011;4663;49.120;9.730;2023-03-14T10:08:14;13.68;;;13.02;;
9254;SDS011;4663;49.120;9.730;2023-03-14T10:10:39;13.05;;;12.45;;
9254;SDS011;4663;49.120;9.730;2023-03-14T10:15:40;12.88;;;12.18;;
9254;SDS011;4663;49.120;9.730;2023-03-14T10:18:09;13.32;;;12.73;;
9254;SDS011;4663;49.120;9.730;2023-03-14T10:20:44;12.65;;;12.05;;
9254;SDS011;4663;49.120;9.730;2023-03-14T10:25:38;17.55;;;16.70;;
9254;SDS011;4663;49.120;9.730;2023-03-14T10:28:10;24.08;;;22.50;;
9254;SDS011;4663;49.120;9.730;2023-03-14T10:30:48;22.15;;;21.02;;
9254;SDS011;4663;49.120;9.730;2023-03-14T10:33:23;28.83;;;27.52;;
9254;SDS011;4663;49.120;9.730;2023-03-14T10:38:40;29.00;;;27.45;;
9254;SDS011;4663;49.120;9.730;2023-03-14T10:41:16;27.27;;;26.00;;
9254;SDS011;4663;49.120;9.730;2023-03-14T10:43:45;25.55;;;24.33;;
9254;SDS011;4663;49.120;9.730;2023-03-14T10:46:17;26.92;;;25.65;;
9254;SDS011;4663;49.120;9.730;2023-03-14T10:48:44;23.85;;;22.77;;
9254;SDS011;4663;49.120;9.730;2023-03-14T10:56:34;17.55;;;16.75;;
9254;SDS011;4663;49.120;9.730;2023-03-14T10:59:02;16.63;;;15.90;;
9254;SDS011;4663;49.120;9.730;2023-03-14T11:07:23;17.75;;;16.95;;
9254;SDS011;4663;49.120;9.730;2023-03-14T11:10:31;19.98;;;19.08;;
9254;SDS011;4663;49.120;9.730;2023-03-14T11:15:21;24.92;;;23.75;;
9254;SDS011;4663;49.120;9.730;2023-03-14T11:28:53;23.23;;;22.17;;
9254;SDS011;4663;49.120;9.730;2023-03-14T11:34:01;27.13;;;25.75;;
9254;SDS011;4663;49.120;9.730;2023-03-14T11:36:33;30.13;;;28.42;;
9254;SDS011;4663;49.120;9.730;2023-03-14T11:39:13;29.52;;;27.85;;
9254;SDS011;4663;49.120;9.730;2023-03-14T11:41:41;22.48;;;21.35;;
9254;SDS011;4663;49.120;9.730;2023-03-14T11:44:12;24.55;;;23.00;;
9254;SDS011;4663;49.120;9.730;2023-03-14T11:46:46;14.60;;;13.90;;
9254;SDS011;4663;49.120;9.730;2023-03-14T11:52:10;13.73;;;13.10;;
9254;SDS011;4663;49.120;9.730;2023-03-14T11:54:50;13.60;;;13.00;;
9254;SDS011;4663;49.120;9.730;2023-03-14T11:57:20;20.83;;;19.77;;
9254;SDS011;4663;49.120;9.730;2023-03-14T11:59:50;14.13;;;13.43;;
9254;SDS011;4663;49.120;9.730;2023-03-14T12:13:07;13.38;;;12.77;;
9254;SDS011;4663;49.120;9.730;2023-03-14T12:15:36;12.82;;;12.23;;
9254;SDS011;4663;49.120;9.730;2023-03-14T12:18:11;12.98;;;12.27;;
9254;SDS011;4663;49.120;9.730;2023-03-14T12:20:53;13.05;;;12.45;;
9254;SDS011;4663;49.120;9.730;2023-03-14T12:23:21;13.30;;;12.60;;
9254;SDS011;4663;49.120;9.730;2023-03-14T12:26:05;14.95;;;14.25;;
9254;SDS011;4663;49.120;9.730;2023-03-14T12:28:42;15.30;;;14.52;;
9254;SDS011;4663;49.120;9.730;2023-03-14T12:42:02;19.52;;;18.63;;
9254;SDS011;4663;49.120;9.730;2023-03-14T12:46:59;24.08;;;22.92;;
9254;SDS011;4663;49.120;9.730;2023-03-14T12:49:31;28.60;;;27.20;;
9254;SDS011;4663;49.120;9.730;2023-03-14T12:52:00;25.73;;;24.55;;
9254;SDS011;4663;49.120;9.730;2023-03-14T12:59:58;27.95;;;26.50;;
9254;SDS011;4663;49.120;9.730;2023-03-14T13:02:26;28.52;;;27.23;;
9254;SDS011;4663;49.120;9.730;2023-03-14T13:12:41;34.50;;;32.83;;
9254;SDS011;4663;49.120;9.730;2023-03-14T13:15:17;27.30;;;25.97;;
9254;SDS011;4663;49.120;9.730;2023-03-14T13:17:48;24.10;;;22.97;;
9254;SDS011;4663;49.120;9.730;2023-03-14T13:22:53;19.00;;;18.10;;
9254;SDS011;4663;49.120;9.730;2023-03-14T13:25:18;18.87;;;17.97;;
9254;SDS011;4663;49.120;9.730;2023-03-14T13:27:46;16.83;;;15.83;;
9254;SDS011;4663;49.120;9.730;2023-03-14T13:30:15;18.37;;;17.53;;
9254;SDS011;4663;49.120;9.730;2023-03-14T13:32:43;16.40;;;15.60;;
9254;SDS011;4663;49.120;9.730;2023-03-14T13:35:14;17.07;;;16.17;;
9254;SDS011;4663;49.120;9.730;2023-03-14T13:37:44;20.60;;;19.57;;
9254;SDS011;4663;49.120;9.730;2023-03-14T13:40:20;23.57;;;22.43;;
9254;SDS011;4663;49.120;9.730;2023-03-14T13:42:59;24.93;;;23.77;;
9254;SDS011;4663;49.120;9.730;2023-03-14T13:45:29;26.80;;;25.47;;
9254;SDS011;4663;49.120;9.730;2023-03-14T13:47:55;24.20;;;23.07;;
9254;SDS011;4663;49.120;9.730;2023-03-14T13:50:20;24.43;;;23.20;;
9254;SDS011;4663;49.120;9.730;2023-03-14T13:52:46;22.73;;;21.60;;
9254;SDS011;4663;49.120;9.730;2023-03-14T13:55:14;27.77;;;26.47;;
9254;SDS011;4663;49.120;9.730;2023-03-14T13:57:48;28.30;;;26.93;;
9254;SDS011;4663;49.120;9.730;2023-03-14T14:02:51;37.47;;;35.67;;
9254;SDS011;4663;49.120;9.730;2023-03-14T14:05:18;37.73;;;35.90;;
9254;SDS011;4663;49.120;9.730;2023-03-14T14:07:44;34.80;;;33.17;;
9254;SDS011;4663;49.120;9.730;2023-03-14T14:10:10;27.17;;;25.87;;
9254;SDS011;4663;49.120;9.730;2023-03-14T14:13:00;22.90;;;21.83;;
9254;SDS011;4663;49.120;9.730;2023-03-14T14:15:28;19.07;;;18.13;;
9254;SDS011;4663;49.120;9.730;2023-03-14T14:18:00;15.27;;;14.57;;
9254;SDS011;4663;49.120;9.730;2023-03-14T14:20:29;14.23;;;13.57;;
9254;SDS011;4663;49.120;9.730;2023-03-14T14:23:00;13.03;;;12.30;;
9254;SDS011;4663;49.120;9.730;2023-03-14T14:25:30;12.33;;;11.73;;
9254;SDS011;4663;49.120;9.730;2023-03-14T14:27:56;11.80;;;11.20;;
9254;SDS011;4663;49.120;9.730;2023-03-14T14:30:27;13.80;;;13.00;;
9254;SDS011;4663;49.120;9.730;2023-03-14T14:33:06;12.97;;;12.13;;
9254;SDS011;4663;49.120;9.730;2023-03-14T14:35:37;13.73;;;12.97;;
9254;SDS011;4663;49.120;9.730;2023-03-14T14:38:02;12.90;;;12.30;;
9254;SDS011;4663;49.120;9.730;2023-03-14T14:40:40;12.50;;;11.90;;
9254;SDS011;4663;49.120;9.730;2023-03-14T14:43:10;13.43;;;12.63;;
9254;SDS011;4663;49.120;9.730;2023-03-14T14:45:42;15.57;;;14.87;;
9254;SDS011;4663;49.120;9.730;2023-03-14T14:48:21;14.83;;;14.00;;
9254;SDS011;4663;49.120;9.730;2023-03-14T14:53:35;17.33;;;16.50;;
9254;SDS011;4663;49.120;9.730;2023-03-14T14:56:19;19.67;;;18.73;;
9254;SDS011;4663;49.120;9.730;2023-03-14T14:58:50;21.20;;;19.90;;
9254;SDS011;4663;49.120;9.730;2023-03-14T15:01:24;21.40;;;20.27;;
9254;SDS011;4663;49.120;9.730;2023-03-14T15:03:55;24.90;;;23.73;;
9254;SDS011;4663;49.120;9.730;2023-03-14T15:06:21;28.73;;;27.27;;
9254;SDS011;4663;49.120;9.730;2023-03-14T15:08:49;29.10;;;27.53;;
9254;SDS011;4663;49.120;9.730;2023-03-14T15:11:18;31.50;;;29.77;;
9254;SDS011;4663;49.120;9.730;2023-03-14T15:13:47;38.43;;;36.50;;
9254;SDS011;4663;49.120;9.730;2023-03-14T15:16:14;36.77;;;35.03;;
9254;SDS011;4663;49.120;9.730;2023-03-14T15:18:41;37.03;;;35.30;;
9254;SDS011;4663;49.120;9.730;2023-03-14T15:21:08;33.40;;;31.73;;
9254;SDS011;4663;49.120;9.730;2023-03-14T15:23:34;29.60;;;28.17;;
9254;SDS011;4663;49.120;9.730;2023-03-14T15:26:00;30.33;;;28.70;;
9254;SDS011;4663;49.120;9.730;2023-03-14T15:28:27;26.97;;;25.53;;
9254;SDS011;4663;49.120;9.730;2023-03-14T15:30:58;25.87;;;24.53;;
9254;SDS011;4663;49.120;9.730;2023-03-14T15:33:24;28.53;;;27.10;;
9254;SDS011;4663;49.120;9.730;2023-03-14T15:35:50;27.50;;;26.20;;
9254;SDS011;4663;49.120;9.730;2023-03-14T15:38:17;26.37;;;25.03;;
9254;SDS011;4663;49.120;9.730;2023-03-14T15:40:46;29.37;;;27.87;;
9254;SDS011;4663;49.120;9.730;2023-03-14T15:43:12;31.90;;;30.43;;
9254;SDS011;4663;49.120;9.730;2023-03-14T15:45:37;35.93;;;34.00;;
9254;SDS011;4663;49.120;9.730;2023-03-14T15:48:03;36.93;;;35.17;;
9254;SDS011;4663;49.120;9.730;2023-03-14T15:50:29;39.23;;;37.33;;
9254;SDS011;4663;49.120;9.730;2023-03-14T15:52:54;34.47;;;32.67;;
9254;SDS011;4663;49.120;9.730;2023-03-14T15:55:21;33.83;;;32.27;;
9254;SDS011;4663;49.120;9.730;2023-03-14T15:57:47;45.33;;;43.17;;
9254;SDS011;4663;49.120;9.730;2023-03-14T16:00:13;49.47;;;46.97;;
9254;SDS011;4663;49.120;9.730;2023-03-14T16:02:42;50.93;;;48.50;;
9254;SDS011;4663;49.120;9.730;2023-03-14T16:05:09;52.30;;;49.73;;
9254;SDS011;4663;49.120;9.730;2023-03-14T16:07:34;47.83;;;45.57;;
9254;SDS011;4663;49.120;9.730;2023-03-14T16:10:00;54.10;;;51.10;;
9254;SDS011;4663;49.120;9.730;2023-03-14T16:12:26;48.87;;;46.57;;
9254;SDS011;4663;49.120;9.730;2023-03-14T16:14:51;53.40;;;50.50;;
9254;SDS011;4663;49.120;9.730;2023-03-14T16:17:16;48.67;;;45.87;;
9254;SDS011;4663;49.120;9.730;2023-03-14T16:19:42;49.00;;;46.60;;
9254;SDS011;4663;49.120;9.730;2023-03-14T16:22:07;45.83;;;43.43;;
9254;SDS011;4663;49.120;9.730;2023-03-14T16:24:33;41.87;;;39.73;;